Time;durP1;ratioP1;P1;durP2;ratioP2;P2;SDS_P1;SDS_P2;PMS_P1;PMS_P2;Temp;Humidity;BMP_temperature;BMP_pressure;BME280_temperature;BME280_humidity;BME280_pressure;Samples;Min_cycle;Max_cycle;Signal;HPM_P1;HPM_P2
2023/08/30 00:02:24;;;;;;;21.50;13.32;;;;;;;-145.69;54.88;52080.00;5135987;27;20293;-82
2023/08/30 00:04:51;;;;;;;21.30;13.07;;;;;;;-145.69;54.91;52085.94;5137552;27;20776;-82
2023/08/30 00:07:17;;;;;;;18.98;11.88;;;;;;;-145.69;54.95;52089.91;5137303;27;20559;-82
2023/08/30 00:09:44;;;;;;;15.45;10.23;;;;;;;-145.69;54.90;52048.31;5137895;27;20221;-83
2023/08/30 00:12:10;;;;;;;12.88;9.10;;;;;;;-145.69;54.90;52072.09;5137525;27;20197;-83
2023/08/30 00:14:38;;;;;;;14.93;10.05;;;;;;;-145.69;54.67;52064.16;5137136;27;20211;-83
2023/08/30 00:17:05;;;;;;;14.73;9.77;;;;;;;-145.69;55.01;52062.19;5136943;27;20656;-83
2023/08/30 00:19:31;;;;;;;15.63;8.88;;;;;;;-145.69;54.86;52089.91;5137464;27;20205;-82
2023/08/30 00:21:58;;;;;;;13.30;9.48;;;;;;;-145.69;54.70;52066.16;5136073;27;20211;-83
2023/08/30 00:24:24;;;;;;;12.73;8.80;;;;;;;-145.69;54.86;52072.09;5137098;27;20229;-83
2023/08/30 00:26:51;;;;;;;16.73;9.52;;;;;;;-145.69;54.49;52062.19;5135692;27;20226;-82
2023/08/30 00:29:17;;;;;;;13.73;9.20;;;;;;;-145.69;54.32;52066.16;5136793;27;20235;-82
2023/08/30 00:31:45;;;;;;;18.90;11.35;;;;;;;-145.69;54.48;52044.38;5137003;27;20659;-83
2023/08/30 00:34:12;;;;;;;23.30;12.65;;;;;;;-145.69;54.79;52082.00;5137497;27;20200;-83
2023/08/30 00:36:38;;;;;;;21.38;12.68;;;;;;;-145.69;55.09;52080.00;5137105;27;20189;-83
2023/08/30 00:39:05;;;;;;;18.42;10.57;;;;;;;-145.69;54.54;52056.25;5136673;27;20196;-82
2023/08/30 00:41:32;;;;;;;15.43;9.27;;;;;;;-145.69;54.68;52076.03;5136175;27;20197;-82
2023/08/30 00:43:58;;;;;;;13.27;9.23;;;;;;;-145.69;54.67;52052.28;5136651;27;20197;-83
2023/08/30 00:46:25;;;;;;;16.70;10.55;;;;;;;-145.69;54.67;52056.25;5136639;27;20203;-83
2023/08/30 00:48:53;;;;;;;17.30;10.15;;;;;;;-145.69;54.94;52068.13;5135380;27;20228;-82
2023/08/30 00:51:21;;;;;;;16.30;10.88;;;;;;;-145.69;54.97;52080.00;5136640;27;20193;-83
2023/08/30 00:53:49;;;;;;;14.52;9.70;;;;;;;-145.69;54.81;52087.94;5132471;27;20243;-82
2023/08/30 00:56:16;;;;;;;15.05;10.60;;;;;;;-145.69;55.11;52070.09;5136587;27;20208;-83
2023/08/30 00:58:43;;;;;;;21.77;11.45;;;;;;;-145.69;54.92;52080.00;5136537;27;20215;-82
2023/08/30 01:01:09;;;;;;;16.98;11.05;;;;;;;-145.69;55.14;52099.81;5136108;27;20201;-83
2023/08/30 01:03:37;;;;;;;18.13;11.10;;;;;;;-145.69;55.23;52095.84;5136426;27;20537;-82
2023/08/30 01:06:05;;;;;;;16.30;10.23;;;;;;;-145.69;54.99;52072.09;5134074;27;20192;-83
2023/08/30 01:08:32;;;;;;;14.38;8.65;;;;;;;-145.69;54.93;52083.97;5136059;27;20548;-83
2023/08/30 01:11:05;;;;;;;15.02;9.52;;;;;;;-145.69;55.01;52076.03;5135922;27;20229;-82
2023/08/30 01:13:38;;;;;;;15.73;10.00;;;;;;;-145.69;54.79;52076.03;5135389;27;20200;-83
2023/08/30 01:16:05;;;;;;;12.13;8.40;;;;;;;-145.69;54.77;52107.72;5136549;27;20208;-82
2023/08/30 01:18:35;;;;;;;11.10;8.07;;;;;;;-145.69;55.54;52087.94;5135386;27;20437;-83
2023/08/30 01:21:03;;;;;;;10.65;7.03;;;;;;;-145.69;54.91;52105.75;5136231;27;20205;-83
2023/08/30 01:23:41;;;;;;;10.95;7.30;;;;;;;-145.69;54.16;52076.03;5136339;27;20201;-83
2023/08/30 01:26:14;;;;;;;8.53;6.10;;;;;;;-145.69;54.81;52101.78;5135627;27;20200;-83
2023/08/30 01:28:42;;;;;;;9.35;6.28;;;;;;;-145.69;54.81;52103.78;5114284;28;20197;-83
2023/08/30 01:31:10;;;;;;;10.10;7.00;;;;;;;-145.69;54.88;52072.09;5134203;27;20225;-83
2023/08/30 01:33:38;;;;;;;11.77;7.97;;;;;;;-145.69;54.97;52109.72;5135483;27;20196;-83
2023/08/30 01:36:06;;;;;;;10.70;7.07;;;;;;;-145.69;55.41;52103.78;5135563;27;20651;-82
2023/08/30 01:38:34;;;;;;;10.13;6.97;;;;;;;-145.69;55.24;52087.94;5134259;27;20208;-83
2023/08/30 01:41:02;;;;;;;11.60;7.73;;;;;;;-145.69;55.44;52105.75;5135673;27;20555;-83
2023/08/30 01:43:30;;;;;;;14.07;8.40;;;;;;;-145.69;55.73;52095.84;5168685;27;20225;-83
2023/08/30 01:45:59;;;;;;;13.30;8.13;;;;;;;-145.69;55.73;52095.84;5135126;27;20655;-82
2023/08/30 01:48:29;;;;;;;13.87;9.13;;;;;;;-145.69;55.87;52101.78;5135000;27;20201;-83
2023/08/30 01:50:58;;;;;;;15.37;9.60;;;;;;;-145.69;55.66;52107.72;5134825;27;20227;-84
2023/08/30 01:53:26;;;;;;;17.07;10.33;;;;;;;-145.69;55.35;52068.13;5135563;27;20197;-83
2023/08/30 01:55:52;;;;;;;17.27;10.10;;;;;;;-145.69;55.91;52127.53;5133762;27;20543;-83
2023/08/30 01:58:19;;;;;;;15.90;9.93;;;;;;;-145.69;55.57;52076.03;5135466;27;20204;-83
2023/08/30 02:00:46;;;;;;;23.37;10.07;;;;;;;-145.69;55.62;52099.81;5135363;27;20200;-83
2023/08/30 02:03:15;;;;;;;20.13;10.57;;;;;;;-145.69;55.56;52087.94;5134511;27;20196;-83
2023/08/30 02:05:53;;;;;;;17.83;11.20;;;;;;;-145.69;55.80;52109.72;5134962;27;20208;-83
2023/08/30 02:08:23;;;;;;;19.97;11.20;;;;;;;-145.69;55.82;52076.03;5135250;27;20555;-83
2023/08/30 02:10:55;;;;;;;15.50;10.37;;;;;;;-145.69;55.54;52091.88;5135328;27;20216;-83
2023/08/30 02:13:27;;;;;;;12.67;8.87;;;;;;;-145.69;55.60;52143.38;5135444;27;20200;-83
2023/08/30 02:15:56;;;;;;;15.07;8.63;;;;;;;-145.69;55.97;52101.78;5134536;27;20197;-83
2023/08/30 02:18:25;;;;;;;14.87;8.60;;;;;;;-145.69;55.57;52099.81;5135076;27;20224;-83
2023/08/30 02:20:51;;;;;;;12.00;7.67;;;;;;;-145.69;55.53;52115.66;5135192;27;20556;-83
2023/08/30 02:23:18;;;;;;;11.43;7.40;;;;;;;-145.69;55.06;52135.47;5134889;27;20197;-83
2023/08/30 02:25:44;;;;;;;10.87;7.13;;;;;;;-145.69;55.59;52129.50;5134882;27;20193;-83
2023/08/30 02:28:11;;;;;;;15.83;9.43;;;;;;;-145.69;55.94;52131.50;5133958;27;20639;-83
2023/08/30 02:30:37;;;;;;;17.80;9.80;;;;;;;-145.69;56.92;52109.72;5134678;27;20227;-83
2023/08/30 02:33:04;;;;;;;13.83;8.60;;;;;;;-145.69;56.17;52117.63;5133284;27;20250;-83
2023/08/30 02:35:32;;;;;;;14.47;8.97;;;;;;;-145.69;56.28;52103.78;5134836;27;20279;-82
2023/08/30 02:37:59;;;;;;;14.73;9.23;;;;;;;-145.69;56.55;52137.44;5134790;27;20200;-83
2023/08/30 02:40:25;;;;;;;18.37;9.87;;;;;;;-145.69;56.41;52119.63;5134672;27;20231;-83
2023/08/30 02:42:52;;;;;;;14.60;8.53;;;;;;;-145.69;56.29;52107.72;5134218;27;20229;-83
2023/08/30 02:45:18;;;;;;;18.57;9.80;;;;;;;-145.69;56.25;52135.47;5133452;27;20338;-83
2023/08/30 02:47:45;;;;;;;19.60;10.07;;;;;;;-145.69;56.40;52089.91;5130883;27;20200;-82
2023/08/30 02:50:12;;;;;;;16.40;9.17;;;;;;;-145.69;55.75;52099.81;5134614;27;20228;-83
2023/08/30 02:52:40;;;;;;;17.77;10.23;;;;;;;-145.69;56.07;52131.50;5134263;27;20204;-83
2023/08/30 02:55:07;;;;;;;14.63;8.47;;;;;;;-145.69;56.20;52107.72;5134242;27;20201;-83
2023/08/30 02:57:33;;;;;;;15.90;9.30;;;;;;;-145.69;56.28;52095.84;5133560;27;20227;-83
2023/08/30 03:00:00;;;;;;;17.93;10.50;;;;;;;-145.69;56.15;52105.75;5133695;27;20652;-83
2023/08/30 03:02:26;;;;;;;17.97;10.53;;;;;;;-145.69;56.32;52103.78;5134090;27;20193;-83
2023/08/30 03:04:53;;;;;;;22.73;11.37;;;;;;;-145.69;56.52;52127.53;5134249;27;20203;-83
2023/08/30 03:07:19;;;;;;;14.97;8.77;;;;;;;-145.69;56.20;52133.47;5134592;27;20227;-82
2023/08/30 03:09:52;;;;;;;13.03;8.40;;;;;;;-145.69;55.87;52115.66;5134161;27;20224;-83
2023/08/30 03:12:19;;;;;;;15.90;9.87;;;;;;;-145.69;56.05;52139.41;5134707;27;20209;-83
2023/08/30 03:14:45;;;;;;;11.90;8.07;;;;;;;-145.69;55.97;52111.69;5134304;27;20196;-83
2023/08/30 03:17:12;;;;;;;13.97;8.17;;;;;;;-145.69;56.35;52107.72;5134795;27;20201;-83
2023/08/30 03:19:38;;;;;;;18.03;10.47;;;;;;;-145.69;56.29;52111.69;5134288;27;20193;-83
2023/08/30 03:22:05;;;;;;;20.07;11.13;;;;;;;-145.69;56.17;52139.41;5133643;28;20193;-83
2023/08/30 03:24:31;;;;;;;16.27;8.67;;;;;;;-145.69;56.03;52085.94;5134147;28;20663;-83
2023/08/30 03:27:00;;;;;;;12.90;8.07;;;;;;;-145.69;55.97;52087.94;5134434;28;20196;-83
2023/08/30 03:29:26;;;;;;;11.67;7.27;;;;;;;-145.69;56.11;52107.72;5133599;27;20245;-83
2023/08/30 03:31:53;;;;;;;11.50;6.90;;;;;;;-145.69;55.85;52121.59;5133225;27;20665;-83
2023/08/30 03:34:19;;;;;;;13.80;7.73;;;;;;;-145.69;55.82;52083.97;5133919;28;20205;-83
2023/08/30 03:36:50;;;;;;;13.43;7.23;;;;;;;-145.69;55.87;52087.94;5134320;27;20196;-83
2023/08/30 03:39:17;;;;;;;11.23;7.17;;;;;;;-145.69;55.92;52087.94;5133084;28;20255;-83
2023/08/30 03:41:45;;;;;;;9.47;6.70;;;;;;;-145.69;55.90;52083.97;5134023;28;20529;-83
2023/08/30 03:44:13;;;;;;;12.13;6.90;;;;;;;-145.69;55.70;52119.63;5133924;27;20196;-83
2023/08/30 03:46:39;;;;;;;12.50;7.73;;;;;;;-145.69;56.50;52137.44;5133924;27;20204;-83
2023/08/30 03:49:06;;;;;;;11.33;6.60;;;;;;;-145.69;56.10;52117.63;5133548;28;20193;-83
2023/08/30 03:51:32;;;;;;;9.63;6.63;;;;;;;-145.69;55.76;52121.59;5133999;28;20225;-83
2023/08/30 03:53:59;;;;;;;11.13;6.73;;;;;;;-145.69;55.84;52131.50;5132865;27;20185;-83
2023/08/30 03:56:25;;;;;;;14.00;8.27;;;;;;;-145.69;55.63;52141.41;5133646;28;20667;-84
2023/08/30 03:58:52;;;;;;;10.53;6.60;;;;;;;-145.69;55.85;52083.97;5115265;28;20224;-83
2023/08/30 04:01:20;;;;;;;12.97;7.87;;;;;;;-145.69;55.49;52099.81;5133091;27;20224;-83
2023/08/30 04:03:47;;;;;;;12.00;7.47;;;;;;;-145.69;55.78;52109.72;5132222;28;20612;-83
2023/08/30 04:06:13;;;;;;;19.00;9.77;;;;;;;-145.69;55.73;52125.56;5133202;27;20197;-83
2023/08/30 04:08:40;;;;;;;17.40;9.83;;;;;;;-145.69;56.23;52129.50;5133223;28;20200;-84
2023/08/30 04:11:06;;;;;;;19.10;9.97;;;;;;;-145.69;55.79;52149.31;5135238;27;20217;-83
2023/08/30 04:13:35;;;;;;;18.67;10.40;;;;;;;-145.69;55.72;52127.53;5137799;27;20197;-83
2023/08/30 04:16:01;;;;;;;15.10;8.77;;;;;;;-145.69;55.43;52131.50;5137365;27;20710;-83
2023/08/30 04:18:29;;;;;;;11.80;6.67;;;;;;;-145.69;55.31;52135.47;5137637;27;20208;-83
2023/08/30 04:20:59;;;;;;;10.57;6.73;;;;;;;-145.69;54.85;52105.75;5137359;27;20196;-83
2023/08/30 04:23:25;;;;;;;11.03;6.87;;;;;;;-145.69;55.16;52133.47;5137434;27;20196;-83
2023/08/30 04:25:53;;;;;;;16.73;8.97;;;;;;;-145.69;55.67;52089.91;5137085;27;20192;-83
2023/08/30 04:28:19;;;;;;;16.30;9.17;;;;;;;-145.69;55.72;52123.56;5137349;27;20200;-82
2023/08/30 04:30:46;;;;;;;15.57;8.67;;;;;;;-145.69;55.88;52115.66;5136590;27;20216;-83
2023/08/30 04:33:12;;;;;;;21.73;10.27;;;;;;;-145.69;56.10;52125.56;5136869;27;20204;-83
2023/08/30 04:35:40;;;;;;;20.67;9.80;;;;;;;-145.69;56.06;52119.63;5137037;27;20188;-83
2023/08/30 04:38:07;;;;;;;16.37;9.67;;;;;;;-145.69;56.50;52105.75;5137015;27;20205;-83
2023/08/30 04:40:33;;;;;;;14.53;8.50;;;;;;;-145.69;56.38;52139.41;5137440;27;20196;-83
2023/08/30 04:43:00;;;;;;;16.57;9.50;;;;;;;-145.69;56.71;52113.66;5116755;27;20229;-83
2023/08/30 04:45:27;;;;;;;19.30;10.50;;;;;;;-145.69;56.70;52113.66;5135609;27;20203;-83
2023/08/30 04:47:54;;;;;;;14.87;8.43;;;;;;;-145.69;56.39;52119.63;5137733;27;20270;-84
2023/08/30 04:50:20;;;;;;;15.03;9.03;;;;;;;-145.69;56.50;52101.78;5139137;27;20279;-84
2023/08/30 04:52:48;;;;;;;15.07;8.67;;;;;;;-145.69;56.36;52095.84;5137619;27;20553;-84
2023/08/30 04:55:15;;;;;;;13.00;8.40;;;;;;;-145.69;56.40;52117.63;5137614;27;20197;-84
2023/08/30 04:57:44;;;;;;;11.05;7.65;;;;;;;-145.69;57.83;52117.63;5136295;27;20433;-83
2023/08/30 05:00:12;;;;;;;12.35;7.28;;;;;;;-145.69;56.62;52105.75;5137246;27;20212;-84
2023/08/30 05:02:38;;;;;;;12.50;7.00;;;;;;;-145.69;56.03;52097.84;5136359;27;20528;-83
2023/08/30 05:05:05;;;;;;;14.10;8.07;;;;;;;-145.69;55.87;52105.75;5136809;27;20199;-84
2023/08/30 05:07:32;;;;;;;13.93;8.63;;;;;;;-145.69;55.94;52101.78;5136673;27;20209;-84
2023/08/30 05:10:00;;;;;;;14.27;8.43;;;;;;;-145.69;56.13;52127.53;5137021;27;20208;-84
2023/08/30 05:12:26;;;;;;;12.45;8.02;;;;;;;-145.69;56.40;52093.88;5136508;27;20197;-84
2023/08/30 05:14:53;;;;;;;17.40;8.20;;;;;;;-145.69;56.40;52095.84;5136930;27;20647;-83
2023/08/30 05:17:19;;;;;;;14.00;8.53;;;;;;;-145.69;56.92;52097.84;5136725;27;20203;-84
2023/08/30 05:19:46;;;;;;;14.13;8.07;;;;;;;-145.69;56.76;52121.59;5136218;27;20193;-83
2023/08/30 05:22:13;;;;;;;12.48;7.72;;;;;;;-145.69;56.62;52089.91;5135582;27;20197;-83
2023/08/30 05:24:39;;;;;;;12.63;8.00;;;;;;;-145.69;56.68;52082.00;5136450;27;20196;-83
2023/08/30 05:27:07;;;;;;;11.50;7.72;;;;;;;-145.69;56.68;52099.81;5136631;27;20196;-83
2023/08/30 05:29:34;;;;;;;15.18;8.95;;;;;;;-145.69;56.72;52121.59;5136389;27;20196;-83
2023/08/30 05:32:00;;;;;;;14.32;7.97;;;;;;;-145.69;56.75;52105.75;5136237;27;20259;-83
2023/08/30 05:34:27;;;;;;;12.13;6.87;;;;;;;-145.69;56.71;52105.75;5134849;27;20195;-83
2023/08/30 05:36:54;;;;;;;12.35;8.13;;;;;;;-145.69;56.79;52064.16;5136446;27;20197;-84
2023/08/30 05:39:21;;;;;;;13.93;7.53;;;;;;;-145.69;56.60;52082.00;5136449;27;20578;-83
2023/08/30 05:41:47;;;;;;;12.75;7.80;;;;;;;-145.69;56.60;52085.94;5134493;27;20235;-84
2023/08/30 05:44:15;;;;;;;13.52;8.68;;;;;;;-145.69;55.65;52056.25;5135614;27;20559;-84
2023/08/30 05:46:42;;;;;;;17.58;8.48;;;;;;;-145.69;56.09;52072.09;5135867;27;20193;-83
2023/08/30 05:49:08;;;;;;;16.25;8.50;;;;;;;-145.69;55.99;52091.88;5135877;27;20203;-83
2023/08/30 05:51:35;;;;;;;12.75;8.02;;;;;;;-145.69;55.37;52093.88;5134350;27;20228;-83
2023/08/30 05:54:02;;;;;;;14.02;8.38;;;;;;;-145.69;55.82;52089.91;5135411;27;20189;-83
2023/08/30 05:56:28;;;;;;;12.90;8.20;;;;;;;-145.69;55.66;52083.97;5135723;27;20253;-84
2023/08/30 05:58:55;;;;;;;12.63;7.30;;;;;;;-145.69;55.64;52076.03;5134948;27;20662;-83
2023/08/30 06:01:23;;;;;;;11.45;7.63;;;;;;;-145.69;55.67;52032.47;5135780;27;20201;-83
2023/08/30 06:03:49;;;;;;;15.77;8.35;;;;;;;-145.69;55.79;52068.13;5135288;27;20197;-83
2023/08/30 06:06:17;;;;;;;9.95;6.45;;;;;;;-145.69;55.89;52038.44;5135813;27;20193;-83
2023/08/30 06:08:43;;;;;;;14.70;7.35;;;;;;;-145.69;55.97;52064.16;5134042;27;20635;-83
2023/08/30 06:11:10;;;;;;;9.55;6.47;;;;;;;-145.69;55.69;52080.00;5135185;27;20225;-84
2023/08/30 06:13:36;;;;;;;9.63;6.50;;;;;;;-145.69;56.04;52044.38;5135443;27;20219;-83
2023/08/30 06:16:03;;;;;;;9.88;7.05;;;;;;;-145.69;56.21;52064.16;5135762;27;20301;-83
2023/08/30 06:18:32;;;;;;;10.07;6.80;;;;;;;-145.69;55.84;52056.25;5135894;27;20568;-83
2023/08/30 06:20:59;;;;;;;9.27;6.47;;;;;;;-145.69;55.91;52072.09;5136184;27;20196;-83
2023/08/30 06:23:25;;;;;;;9.00;6.32;;;;;;;-145.69;55.77;52080.00;5135787;27;20200;-83
2023/08/30 06:25:56;;;;;;;8.63;5.75;;;;;;;-145.69;55.18;52016.66;5134841;27;20207;-83
2023/08/30 06:28:22;;;;;;;9.80;6.85;;;;;;;-145.69;56.08;52038.44;5135369;27;20204;-82
2023/08/30 06:30:49;;;;;;;8.73;6.38;;;;;;;-145.69;56.02;52052.28;5134908;27;20567;-83
2023/08/30 06:33:15;;;;;;;8.40;5.90;;;;;;;-145.69;56.07;52050.31;5135184;27;20193;-83
2023/08/30 06:35:43;;;;;;;8.10;6.03;;;;;;;-145.69;56.48;52048.31;5133063;27;20211;-83
2023/08/30 06:38:10;;;;;;;8.68;6.13;;;;;;;-145.69;56.16;52036.44;5134269;27;20203;-82
2023/08/30 06:40:37;;;;;;;11.00;7.03;;;;;;;-145.69;56.34;52042.38;5134607;27;20207;-83
2023/08/30 06:43:04;;;;;;;9.35;6.13;;;;;;;-145.69;55.57;52032.47;5134773;27;20224;-82
2023/08/30 06:45:30;;;;;;;7.90;5.53;;;;;;;-145.69;56.41;52032.47;5134877;27;20213;-82
2023/08/30 06:47:57;;;;;;;7.25;5.30;;;;;;;-145.69;56.26;52012.69;5134970;27;20529;-83
2023/08/30 06:50:23;;;;;;;7.95;5.65;;;;;;;-145.69;55.69;52070.09;5135011;27;20196;-83
2023/08/30 06:52:51;;;;;;;7.40;5.80;;;;;;;-145.69;56.09;52044.38;5135071;27;20683;-83
2023/08/30 06:55:18;;;;;;;8.90;5.85;;;;;;;-145.69;56.25;52068.13;5134227;27;20324;-83
2023/08/30 06:57:49;;;;;;;8.45;6.50;;;;;;;-145.69;53.95;52060.22;5134860;27;20197;-82
2023/08/30 07:00:16;;;;;;;7.20;5.00;;;;;;;-145.69;55.80;52026.53;5134293;27;20193;-83
2023/08/30 07:02:45;;;;;;;6.07;4.85;;;;;;;-145.69;55.91;52040.41;5134504;27;20533;-83
2023/08/30 07:05:12;;;;;;;6.68;5.22;;;;;;;-145.69;55.72;52048.31;5134968;27;20265;-83
2023/08/30 07:07:38;;;;;;;6.70;5.43;;;;;;;-145.69;56.60;52028.53;5134245;27;20432;-83
2023/08/30 07:10:08;;;;;;;5.80;4.63;;;;;;;-145.69;55.64;52040.41;5134351;27;20197;-82
2023/08/30 07:12:34;;;;;;;5.43;4.38;;;;;;;-145.69;54.53;52020.59;5134390;27;20224;-82
2023/08/30 07:15:03;;;;;;;5.13;3.75;;;;;;;-145.69;54.98;52034.47;5134429;27;20199;-82
2023/08/30 07:17:29;;;;;;;6.15;4.13;;;;;;;-145.69;54.89;52016.66;5134271;27;20201;-83
2023/08/30 07:19:56;;;;;;;6.15;4.40;;;;;;;-145.69;53.35;52020.59;5134079;27;20193;-82
2023/08/30 07:22:22;;;;;;;5.53;4.28;;;;;;;-145.69;52.83;52020.59;5134117;27;20559;-82
2023/08/30 07:24:49;;;;;;;6.72;4.20;;;;;;;-145.69;52.78;52032.47;5133703;28;20203;-83
2023/08/30 07:27:17;;;;;;;6.20;3.88;;;;;;;-145.69;51.50;51990.91;5134102;27;20196;-82
2023/08/30 07:29:43;;;;;;;5.72;3.75;;;;;;;-145.69;51.92;52000.81;5134092;27;20200;-80
2023/08/30 07:32:10;;;;;;;4.70;3.35;;;;;;;-145.69;50.87;51973.06;5133710;27;20277;-80
2023/08/30 07:34:37;;;;;;;3.78;3.03;;;;;;;-145.69;50.42;51963.19;5133744;28;20196;-80
2023/08/30 07:37:03;;;;;;;3.15;2.50;;;;;;;-145.69;49.06;51939.41;5133626;27;20196;-81
2023/08/30 07:39:30;;;;;;;3.17;2.53;;;;;;;-145.69;46.87;51959.22;5133819;27;20203;-80
2023/08/30 07:41:57;;;;;;;2.35;2.15;;;;;;;-145.69;46.42;51941.41;5133738;28;20229;-80
2023/08/30 07:44:25;;;;;;;2.75;2.20;;;;;;;-145.69;45.01;51957.25;5132749;28;20648;-80
2023/08/30 07:46:52;;;;;;;2.28;2.00;;;;;;;-145.69;44.18;51955.25;5136426;27;20200;-80
2023/08/30 07:49:19;;;;;;;1.55;1.45;;;;;;;-145.69;43.38;51951.28;5138475;27;20319;-81
2023/08/30 07:51:46;;;;;;;2.55;1.70;;;;;;;-145.69;43.92;51961.19;5138407;27;20231;-80
2023/08/30 07:54:12;;;;;;;1.50;1.40;;;;;;;-145.69;43.78;51933.47;5138208;27;20202;-81
2023/08/30 07:56:39;;;;;;;1.83;1.40;;;;;;;-145.69;42.79;51933.47;5138070;27;20208;-80
2023/08/30 07:59:05;;;;;;;1.42;1.33;;;;;;;-145.69;41.94;51933.47;5137750;27;20203;-81
2023/08/30 08:01:33;;;;;;;1.30;1.10;;;;;;;-145.69;41.18;51893.88;5136023;27;20317;-81
2023/08/30 08:04:00;;;;;;;2.03;1.20;;;;;;;-145.69;40.72;51917.63;5136768;27;20201;-80
2023/08/30 08:06:26;;;;;;;1.15;0.90;;;;;;;-145.69;39.74;51941.41;5135663;27;20189;-81
2023/08/30 08:08:53;;;;;;;2.22;1.25;;;;;;;-145.69;40.01;51937.44;5137222;27;20197;-80
2023/08/30 08:11:19;;;;;;;4.15;1.27;;;;;;;-145.69;39.44;51905.75;5136274;27;20213;-79
2023/08/30 08:13:46;;;;;;;1.42;1.20;;;;;;;-145.69;39.57;51897.84;5137005;27;20556;-80
2023/08/30 08:16:12;;;;;;;3.15;1.10;;;;;;;-145.69;39.45;51933.47;5137019;27;20201;-80
2023/08/30 08:18:41;;;;;;;1.77;1.00;;;;;;;-145.69;39.49;51897.84;5137236;27;20228;-80
2023/08/30 08:21:07;;;;;;;1.80;1.30;;;;;;;-145.69;39.87;51933.47;5137704;27;20193;-80
2023/08/30 08:23:34;;;;;;;2.08;1.27;;;;;;;-145.69;39.82;51885.94;5136576;27;20197;-80
2023/08/30 08:26:00;;;;;;;2.95;1.40;;;;;;;-145.69;40.12;51903.78;5137174;27;20208;-80
2023/08/30 08:28:27;;;;;;;3.88;1.20;;;;;;;-145.69;39.65;51933.47;5137272;27;20201;-80
2023/08/30 08:30:54;;;;;;;3.58;1.40;;;;;;;-145.69;39.88;51911.69;5136898;27;20220;-81
2023/08/30 08:33:22;;;;;;;1.98;1.10;;;;;;;-145.69;40.16;51903.78;5136645;27;20233;-80
2023/08/30 08:35:51;;;;;;;1.63;1.27;;;;;;;-145.69;39.86;51885.94;5132676;27;20196;-81
2023/08/30 08:38:17;;;;;;;1.77;1.15;;;;;;;-145.69;39.84;51889.91;5136463;27;20673;-81
2023/08/30 08:40:44;;;;;;;3.38;1.40;;;;;;;-145.69;40.21;51923.56;5136596;27;20681;-80
2023/08/30 08:43:11;;;;;;;2.90;1.50;;;;;;;-145.69;39.64;51921.59;5135856;27;20232;-80
2023/08/30 08:45:38;;;;;;;5.95;1.35;;;;;;;-145.69;39.33;51935.47;5136460;27;20220;-80
2023/08/30 08:48:05;;;;;;;2.42;1.40;;;;;;;-145.69;39.65;51893.88;5136237;27;20547;-80
2023/08/30 08:50:32;;;;;;;1.80;1.40;;;;;;;-145.69;40.70;51880.00;5136595;27;20199;-80
2023/08/30 08:53:02;;;;;;;1.73;1.52;;;;;;;-145.69;39.93;51909.72;5136103;27;20224;-80
2023/08/30 08:55:30;;;;;;;1.58;1.42;;;;;;;-145.69;40.02;51903.78;5116013;27;20208;-79
2023/08/30 08:57:58;;;;;;;2.33;1.52;;;;;;;-145.69;39.96;51911.69;5134010;27;20287;-80
2023/08/30 09:00:25;;;;;;;1.88;1.40;;;;;;;-145.69;39.34;51917.63;5139098;27;20204;-82
2023/08/30 09:02:54;;;;;;;3.78;1.77;;;;;;;-145.69;39.44;51901.78;5130026;27;20674;-80
2023/08/30 09:05:21;;;;;;;1.30;1.20;;;;;;;-145.69;39.37;51903.78;5121747;27;20220;-81
2023/08/30 09:07:48;;;;;;;2.72;1.58;;;;;;;-145.69;39.50;51937.44;5136031;27;20647;-81
2023/08/30 09:10:16;;;;;;;2.17;1.67;;;;;;;-145.69;39.75;51885.94;5135690;27;20669;-80
2023/08/30 09:12:42;;;;;;;2.22;1.30;;;;;;;-145.69;39.57;51882.00;5135677;27;20585;-80
2023/08/30 09:15:09;;;;;;;2.28;1.60;;;;;;;-145.69;38.98;51880.00;5135342;27;20204;-80
2023/08/30 09:17:37;;;;;;;2.45;1.70;;;;;;;-145.69;39.63;51931.50;5150888;27;20200;-78
2023/08/30 09:20:08;;;;;;;2.50;1.80;;;;;;;-145.69;38.40;51907.72;5135773;27;20193;-81
2023/08/30 09:22:38;;;;;;;2.13;1.52;;;;;;;-145.69;38.54;51889.91;5135928;27;20203;-82
2023/08/30 09:25:05;;;;;;;2.38;1.70;;;;;;;-145.69;38.63;51913.69;5136289;27;20201;-79
2023/08/30 09:27:38;;;;;;;1.30;1.20;;;;;;;-145.69;37.86;51903.78;5136060;27;20591;-81
2023/08/30 09:30:07;;;;;;;3.33;1.60;;;;;;;-145.69;38.06;51872.09;5135840;27;20201;-81
2023/08/30 09:32:39;;;;;;;2.92;2.00;;;;;;;-145.69;38.93;51882.00;5135635;27;20714;-81
2023/08/30 09:35:06;;;;;;;2.58;1.80;;;;;;;-145.69;38.74;51883.97;5135567;27;20197;-81
2023/08/30 09:37:33;;;;;;;3.92;1.95;;;;;;;-145.69;39.01;51885.94;5135848;27;20196;-81
2023/08/30 09:40:00;;;;;;;2.63;1.60;;;;;;;-145.69;39.29;51895.84;5135540;27;20608;-81
2023/08/30 09:42:26;;;;;;;2.30;1.80;;;;;;;-145.69;38.92;51895.84;5136612;27;20228;-81
2023/08/30 09:44:54;;;;;;;3.55;1.73;;;;;;;-145.69;39.42;51897.84;5135341;27;20207;-80
2023/08/30 09:47:21;;;;;;;2.25;1.60;;;;;;;-145.69;38.81;51927.53;5135933;27;20185;-81
2023/08/30 09:49:48;;;;;;;2.65;1.38;;;;;;;-145.69;38.58;51880.00;5135102;27;20200;-81
2023/08/30 09:52:16;;;;;;;4.07;1.60;;;;;;;-145.69;39.00;51915.66;5133947;27;20453;-81
2023/08/30 09:54:44;;;;;;;2.35;1.67;;;;;;;-145.69;38.83;51889.91;5135736;27;20513;-81
2023/08/30 09:57:11;;;;;;;4.40;1.60;;;;;;;-145.69;38.74;51885.94;5135191;27;20192;-82
2023/08/30 09:59:39;;;;;;;1.65;1.20;;;;;;;-145.69;37.48;51885.94;5130994;27;20200;-81
2023/08/30 10:02:09;;;;;;;3.35;1.50;;;;;;;-145.69;37.93;51880.00;5135095;27;20211;-81
2023/08/30 10:04:39;;;;;;;1.42;1.30;;;;;;;-145.69;37.61;51848.34;5134550;27;20193;-80
2023/08/30 10:07:07;;;;;;;3.45;1.60;;;;;;;-145.69;36.56;51856.25;5140874;27;20189;-80
2023/08/30 10:09:34;;;;;;;2.13;1.20;;;;;;;-145.69;36.70;51846.34;5132751;27;20189;-80
2023/08/30 10:12:03;;;;;;;1.88;1.48;;;;;;;-145.69;36.75;51876.06;5134534;27;20249;-81
2023/08/30 10:14:30;;;;;;;2.22;1.60;;;;;;;-145.69;37.52;51858.22;5134941;27;20691;-80
2023/08/30 10:17:02;;;;;;;2.35;1.40;;;;;;;-145.69;37.04;51854.28;5136083;27;20279;-80
2023/08/30 10:19:34;;;;;;;2.65;1.38;;;;;;;-145.69;36.85;51870.13;5135033;27;20185;-79
2023/08/30 10:22:04;;;;;;;2.00;1.60;;;;;;;-145.69;37.19;51885.94;5135413;27;20192;-79
2023/08/30 10:24:33;;;;;;;1.67;1.13;;;;;;;-145.69;36.33;51872.09;5136951;27;20667;-79
2023/08/30 10:27:02;;;;;;;3.78;1.60;;;;;;;-145.69;36.37;51876.06;5144208;27;20191;-80
2023/08/30 10:29:30;;;;;;;1.67;1.58;;;;;;;-145.69;37.46;51868.13;5130841;27;20219;-78
2023/08/30 10:31:57;;;;;;;2.65;1.50;;;;;;;-145.69;35.37;51856.25;5124933;27;20196;-80
2023/08/30 10:34:25;;;;;;;2.13;1.23;;;;;;;-145.69;34.83;51878.03;5135116;27;20196;-80
2023/08/30 10:37:01;;;;;;;1.83;1.30;;;;;;;-145.69;35.83;51824.56;5134779;27;20196;-80
2023/08/30 10:39:35;;;;;;;2.03;1.38;;;;;;;-145.69;36.21;51852.28;5134537;27;20643;-80
2023/08/30 10:42:01;;;;;;;2.10;1.40;;;;;;;-145.69;35.83;51850.31;5145306;27;20276;-80
2023/08/30 10:44:28;;;;;;;2.25;1.40;;;;;;;-145.69;35.47;51828.53;5141879;27;20285;-80
2023/08/30 10:46:55;;;;;;;1.73;1.13;;;;;;;-145.69;36.08;51844.38;5134987;27;20188;-81
2023/08/30 10:49:23;;;;;;;1.52;1.30;;;;;;;-145.69;34.57;51838.44;5135648;27;20200;-81
2023/08/30 10:52:00;;;;;;;1.98;1.40;;;;;;;-145.69;33.80;51842.38;5140134;27;20286;-80
2023/08/30 10:54:37;;;;;;;3.13;1.60;;;;;;;-145.69;34.49;51826.56;5134366;27;20188;-81
2023/08/30 10:57:04;;;;;;;2.05;1.30;;;;;;;-145.69;34.69;51824.56;5144550;27;20191;-79
2023/08/30 10:59:31;;;;;;;4.57;1.90;;;;;;;-145.69;34.00;51820.59;5143861;27;20203;-81
2023/08/30 11:02:03;;;;;;;2.60;1.52;;;;;;;-145.69;33.91;51834.47;5134209;27;20224;-80
2023/08/30 11:04:30;;;;;;;1.88;1.40;;;;;;;-145.69;34.03;51842.38;5134977;27;20201;-79
2023/08/30 11:06:57;;;;;;;3.40;1.80;;;;;;;-145.69;33.90;51866.16;5134873;27;20678;-80
2023/08/30 11:09:26;;;;;;;2.38;1.45;;;;;;;-145.69;33.84;51816.66;5135362;27;20207;-80
2023/08/30 11:11:53;;;;;;;2.40;1.50;;;;;;;-145.69;33.82;51878.03;5135083;27;20201;-80
2023/08/30 11:14:20;;;;;;;1.80;1.40;;;;;;;-145.69;34.03;51838.44;5135005;27;20220;-79